Time,TemperatureF,DewpointF,PressureIn,WindDirection,WindDirectionDegrees,WindSpeedMPH,WindSpeedGustMPH,Humidity,HourlyPrecipIn,Conditions,Clouds,dailyrainin,SoftwareType,DateUTC
2013-11-03 00:14:00,44.0,39.0,29.84,WSW,254,0.0,1.0,81,0.00,,,0.00,weatherlink.com 1.10,2013-11-03 04:14:00,
2013-11-03 00:30:00,43.5,38.0,29.84,WNW,283,1.0,2.0,82,0.00,,,0.00,weatherlink.com 1.10,2013-11-03 04:30:00,
2013-11-03 00:45:00,44.6,39.0,29.85,WNW,300,2.0,6.0,81,0.00,,,0.00,weatherlink.com 1.10,2013-11-03 04:45:00,
2013-11-03 01:00:00,45.8,39.0,29.85,NW,312,1.0,4.0,78,0.00,,,0.00,weatherlink.com 1.10,2013-11-03 05:00:00,
2013-11-03 01:15:00,47.2,40.0,29.85,WNW,298,3.0,10.0,75,0.00,,,0.00,weatherlink.com 1.10,2013-11-03 05:15:00,
2013-11-03 01:30:00,47.1,40.0,29.85,WNW,290,3.0,4.0,75,0.00,,,0.00,weatherlink.com 1.10,2013-11-03 05:30:00,
2013-11-03 01:45:00,47.3,39.0,29.86,WNW,288,1.0,5.0,74,0.00,,,0.00,weatherlink.com 1.10,2013-11-03 05:45:00,
2013-11-03 01:00:00,47.4,40.0,29.87,NW,304,2.0,5.0,74,0.00,,,0.00,weatherlink.com 1.10,2013-11-03 06:00:00,
2013-11-03 01:15:00,47.9,40.0,29.87,WNW,294,1.0,7.0,74,0.00,,,0.00,weatherlink.com 1.10,2013-11-03 06:15:00,
2013-11-03 01:30:00,48.3,40.0,29.87,WNW,295,2.0,5.0,72,0.00,,,0.00,weatherlink.com 1.10,2013-11-03 06:30:00,
2013-11-03 01:45:00,48.6,40.0,29.87,WNW,289,0.0,3.0,73,0.00,,,0.00,weatherlink.com 1.10,2013-11-03 06:45:00,
2013-11-03 02:00:00,48.6,40.0,29.87,West,279,0.0,5.0,72,0.00,,,0.00,weatherlink.com 1.10,2013-11-03 07:00:00,
2013-11-03 02:15:00,48.4,40.0,29.88,WNW,290,1.0,2.0,72,0.00,,,0.00,weatherlink.com 1.10,2013-11-03 07:15:00,
2013-11-03 02:30:00,47.7,39.0,29.88,West,275,2.0,5.0,73,0.00,,,0.00,weatherlink.com 1.10,2013-11-03 07:30:00,
2013-11-03 02:45:00,47.3,39.0,29.89,WNW,287,2.0,4.0,74,0.00,,,0.00,weatherlink.com 1.10,2013-11-03 07:45:00,
2013-11-03 03:15:00,47.6,40.0,29.90,WNW,282,0.0,4.0,75,0.00,,,0.00,weatherlink.com 1.10,2013-11-03 08:15:00,
2013-11-03 03:30:00,47.6,40.0,29.91,WNW,282,0.0,1.0,75,0.00,,,0.00,weatherlink.com 1.10,2013-11-03 08:30:00,
2013-11-03 03:45:00,47.7,40.0,29.92,WNW,297,0.0,3.0,74,0.00,,,0.00,weatherlink.com 1.10,2013-11-03 08:45:00,
2013-11-03 04:00:00,48.2,40.0,29.92,West,265,2.0,6.0,73,0.00,,,0.00,weatherlink.com 1.10,2013-11-03 09:00:00,
2013-11-03 04:15:00,48.9,40.0,29.93,WNW,301,5.0,10.0,71,0.00,,,0.00,weatherlink.com 1.10,2013-11-03 09:15:00,
2013-11-03 04:30:00,49.1,40.0,29.94,WNW,294,9.0,13.0,72,0.00,,,0.00,weatherlink.com 1.10,2013-11-03 09:30:00,
2013-11-03 04:45:00,48.9,41.0,29.95,NW,315,4.0,11.0,73,0.00,,,0.00,weatherlink.com 1.10,2013-11-03 09:45:00,
2013-11-03 05:00:00,48.5,41.0,29.96,WNW,296,3.0,8.0,74,0.00,,,0.00,weatherlink.com 1.10,2013-11-03 10:00:00,
2013-11-03 05:15:00,48.4,39.0,29.97,West,265,3.0,11.0,71,0.00,,,0.00,weatherlink.com 1.10,2013-11-03 10:15:00,
2013-11-03 05:30:00,48.0,39.0,29.98,WNW,292,1.0,7.0,72,0.00,,,0.00,weatherlink.com 1.10,2013-11-03 10:30:00,
2013-11-03 05:46:00,47.5,41.0,29.99,NW,318,0.0,3.0,77,0.00,,,0.00,weatherlink.com 1.10,2013-11-03 10:46:00,
2013-11-03 06:01:00,47.0,40.0,30.00,West,273,1.0,7.0,76,0.00,,,0.00,weatherlink.com 1.10,2013-11-03 11:01:00,
2013-11-03 06:16:00,46.8,39.0,30.01,NNE,32,0.0,9.0,74,0.00,,,0.00,weatherlink.com 1.10,2013-11-03 11:16:00,
2013-11-03 06:31:00,46.7,38.0,30.02,ESE,111,2.0,6.0,73,0.00,,,0.00,weatherlink.com 1.10,2013-11-03 11:31:00,
2013-11-03 06:46:00,46.4,38.0,30.03,West,275,0.0,5.0,73,0.00,,,0.00,weatherlink.com 1.10,2013-11-03 11:46:00,
2013-11-03 07:02:00,46.3,37.0,30.04,NNW,342,1.0,5.0,71,0.00,,,0.00,weatherlink.com 1.10,2013-11-03 12:02:00,
2013-11-03 07:16:00,46.3,37.0,30.05,ENE,78,1.0,8.0,70,0.00,,,0.00,weatherlink.com 1.10,2013-11-03 12:16:00,
2013-11-03 07:31:00,46.0,37.0,30.07,WSW,242,5.0,11.0,71,0.00,,,0.00,weatherlink.com 1.10,2013-11-03 12:31:00,
2013-11-03 07:46:00,46.0,37.0,30.08,West,279,2.0,6.0,72,0.00,,,0.00,weatherlink.com 1.10,2013-11-03 12:46:00,
2013-11-03 08:01:00,46.0,37.0,30.10,SW,223,0.0,6.0,72,0.00,,,0.00,weatherlink.com 1.10,2013-11-03 13:01:00,
2013-11-03 08:16:00,46.1,38.0,30.10,WNW,294,1.0,9.0,72,0.00,,,0.00,weatherlink.com 1.10,2013-11-03 13:16:00,
2013-11-03 08:31:00,46.5,38.0,30.11,WNW,283,5.0,9.0,73,0.00,,,0.00,weatherlink.com 1.10,2013-11-03 13:31:00,
2013-11-03 08:46:00,46.8,38.0,30.12,WNW,287,5.0,15.0,71,0.00,,,0.00,weatherlink.com 1.10,2013-11-03 13:46:00,
2013-11-03 09:01:00,46.6,37.0,30.12,West,279,9.0,11.0,70,0.00,,,0.00,weatherlink.com 1.10,2013-11-03 14:01:00,
2013-11-03 09:17:00,46.6,37.0,30.12,NW,320,1.0,8.0,70,0.00,,,0.00,weatherlink.com 1.10,2013-11-03 14:17:00,
2013-11-03 09:31:00,47.4,37.0,30.13,West,279,4.0,10.0,67,0.00,,,0.00,weatherlink.com 1.10,2013-11-03 14:31:00,
2013-11-03 09:46:00,50.2,37.0,30.14,ESE,114,3.0,11.0,62,0.00,,,0.00,weatherlink.com 1.10,2013-11-03 14:46:00,
2013-11-03 10:01:00,51.7,37.0,30.14,East,101,2.0,9.0,58,0.00,,,0.00,weatherlink.com 1.10,2013-11-03 15:01:00,
2013-11-03 10:16:00,51.6,37.0,30.15,NW,321,0.0,13.0,59,0.00,,,0.00,weatherlink.com 1.10,2013-11-03 15:16:00,
2013-11-03 10:31:00,52.6,38.0,30.16,WNW,295,3.0,10.0,57,0.00,,,0.00,weatherlink.com 1.10,2013-11-03 15:31:00,
2013-11-03 10:46:00,53.4,36.0,30.16,West,279,2.0,12.0,53,0.00,,,0.00,weatherlink.com 1.10,2013-11-03 15:46:00,
2013-11-03 11:01:00,53.9,35.0,30.17,NW,315,3.0,14.0,49,0.00,,,0.00,weatherlink.com 1.10,2013-11-03 16:01:00,
2013-11-03 11:17:00,55.1,36.0,30.17,West,278,6.0,7.0,48,0.00,,,0.00,weatherlink.com 1.10,2013-11-03 16:17:00,
2013-11-03 11:32:00,55.1,33.0,30.17,East,95,2.0,5.0,44,0.00,,,0.00,weatherlink.com 1.10,2013-11-03 16:32:00,
2013-11-03 11:47:00,54.4,32.0,30.16,NNE,24,0.0,8.0,43,0.00,,,0.00,weatherlink.com 1.10,2013-11-03 16:47:00,
2013-11-03 12:02:00,54.8,32.0,30.16,WNW,300,8.0,12.0,43,0.00,,,0.00,weatherlink.com 1.10,2013-11-03 17:02:00,
2013-11-03 12:17:00,54.8,32.0,30.16,South,175,2.0,16.0,42,0.00,,,0.00,weatherlink.com 1.10,2013-11-03 17:17:00,
2013-11-03 12:32:00,55.0,30.0,30.16,NNW,329,3.0,11.0,39,0.00,,,0.00,weatherlink.com 1.10,2013-11-03 17:32:00,
2013-11-03 12:47:00,55.3,31.0,30.16,NW,318,0.0,8.0,39,0.00,,,0.00,weatherlink.com 1.10,2013-11-03 17:47:00,
2013-11-03 13:02:00,55.8,32.0,30.15,West,269,4.0,9.0,41,0.00,,,0.00,weatherlink.com 1.10,2013-11-03 18:02:00,
2013-11-03 13:17:00,56.4,33.0,30.15,North,355,1.0,10.0,41,0.00,,,0.00,weatherlink.com 1.10,2013-11-03 18:17:00,
2013-11-03 13:32:00,56.1,32.0,30.15,West,264,5.0,12.0,41,0.00,,,0.00,weatherlink.com 1.10,2013-11-03 18:32:00,
2013-11-03 13:47:00,55.9,32.0,30.16,WNW,297,10.0,11.0,40,0.00,,,0.00,weatherlink.com 1.10,2013-11-03 18:47:00,
2013-11-03 14:02:00,56.3,29.0,30.16,WNW,282,3.0,8.0,36,0.00,,,0.00,weatherlink.com 1.10,2013-11-03 19:02:00,
2013-11-03 14:17:00,55.2,26.0,30.16,WNW,297,4.0,17.0,33,0.00,,,0.00,weatherlink.com 1.10,2013-11-03 19:17:00,
2013-11-03 14:32:00,54.6,26.0,30.17,West,275,8.0,13.0,33,0.00,,,0.00,weatherlink.com 1.10,2013-11-03 19:32:00,
2013-11-03 14:47:00,53.8,25.0,30.17,WNW,290,6.0,14.0,33,0.00,,,0.00,weatherlink.com 1.10,2013-11-03 19:47:00,
2013-11-03 15:02:00,53.6,24.0,30.17,West,279,5.0,14.0,32,0.00,,,0.00,weatherlink.com 1.10,2013-11-03 20:02:00,
2013-11-03 15:17:00,53.4,24.0,30.18,WSW,257,1.0,16.0,32,0.00,,,0.00,weatherlink.com 1.10,2013-11-03 20:17:00,
2013-11-03 15:32:00,53.3,24.0,30.18,WNW,284,5.0,13.0,32,0.00,,,0.00,weatherlink.com 1.10,2013-11-03 20:32:00,
2013-11-03 15:47:00,53.2,25.0,30.19,WNW,285,4.0,13.0,33,0.00,,,0.00,weatherlink.com 1.10,2013-11-03 20:47:00,
2013-11-03 16:02:00,52.9,24.0,30.19,West,274,1.0,12.0,32,0.00,,,0.00,weatherlink.com 1.10,2013-11-03 21:02:00,
2013-11-03 16:17:00,52.6,25.0,30.20,WNW,295,3.0,5.0,34,0.00,,,0.00,weatherlink.com 1.10,2013-11-03 21:17:00,
2013-11-03 16:32:00,52.1,24.0,30.20,West,277,6.0,9.0,34,0.00,,,0.00,weatherlink.com 1.10,2013-11-03 21:32:00,
2013-11-03 16:47:00,51.4,24.0,30.21,WNW,286,3.0,9.0,34,0.00,,,0.00,weatherlink.com 1.10,2013-11-03 21:47:00,
2013-11-03 17:02:00,50.5,25.0,30.21,WNW,296,1.0,6.0,37,0.00,,,0.00,weatherlink.com 1.10,2013-11-03 22:02:00,
2013-11-03 17:17:00,49.6,25.0,30.22,West,271,1.0,5.0,38,0.00,,,0.00,weatherlink.com 1.10,2013-11-03 22:17:00,
2013-11-03 17:32:00,48.8,25.0,30.23,WNW,288,1.0,5.0,39,0.00,,,0.00,weatherlink.com 1.10,2013-11-03 22:32:00,
2013-11-03 17:47:00,48.3,24.0,30.23,West,281,3.0,7.0,38,0.00,,,0.00,weatherlink.com 1.10,2013-11-03 22:47:00,
2013-11-03 18:02:00,47.8,24.0,30.23,WSW,255,0.0,5.0,39,0.00,,,0.00,weatherlink.com 1.10,2013-11-03 23:02:00,
2013-11-03 18:17:00,47.2,23.0,30.25,West,281,1.0,5.0,39,0.00,,,0.00,weatherlink.com 1.10,2013-11-03 23:17:00,
2013-11-03 18:32:00,46.4,24.0,30.25,WNW,288,1.0,4.0,41,0.00,,,0.00,weatherlink.com 1.10,2013-11-03 23:32:00,
2013-11-03 18:47:00,46.0,24.0,30.26,WNW,288,1.0,6.0,42,0.00,,,0.00,weatherlink.com 1.10,2013-11-03 23:47:00,
2013-11-03 19:02:00,45.4,24.0,30.27,WNW,285,1.0,3.0,44,0.00,,,0.00,weatherlink.com 1.10,2013-11-04 00:02:00,
2013-11-03 19:17:00,44.5,26.0,30.27,WNW,283,1.0,1.0,48,0.00,,,0.00,weatherlink.com 1.10,2013-11-04 00:17:00,
2013-11-03 19:32:00,43.3,26.0,30.28,WNW,283,0.0,0.0,50,0.00,,,0.00,weatherlink.com 1.10,2013-11-04 00:32:00,
2013-11-03 19:47:00,42.0,26.0,30.29,WNW,284,0.0,2.0,53,0.00,,,0.00,weatherlink.com 1.10,2013-11-04 00:47:00,
2013-11-03 20:03:00,41.5,25.0,30.30,WSW,257,0.0,2.0,53,0.00,,,0.00,weatherlink.com 1.10,2013-11-04 01:03:00,
2013-11-03 20:18:00,40.8,26.0,30.31,West,272,0.0,2.0,57,0.00,,,0.00,weatherlink.com 1.10,2013-11-04 01:18:00,
2013-11-03 20:33:00,39.7,26.0,30.31,West,272,0.0,1.0,59,0.00,,,0.00,weatherlink.com 1.10,2013-11-04 01:33:00,
2013-11-03 20:48:00,38.8,27.0,30.32,West,272,0.0,1.0,62,0.00,,,0.00,weatherlink.com 1.10,2013-11-04 01:48:00,
2013-11-03 21:03:00,37.9,27.0,30.33,West,279,0.0,2.0,64,0.00,,,0.00,weatherlink.com 1.10,2013-11-04 02:03:00,
2013-11-03 21:18:00,37.1,27.0,30.34,West,279,0.0,1.0,66,0.00,,,0.00,weatherlink.com 1.10,2013-11-04 02:18:00,
2013-11-03 21:33:00,36.6,27.0,30.35,West,279,0.0,1.0,68,0.00,,,0.00,weatherlink.com 1.10,2013-11-04 02:33:00,
2013-11-03 21:48:00,36.6,27.0,30.36,West,279,0.0,2.0,68,0.00,,,0.00,weatherlink.com 1.10,2013-11-04 02:48:00,
2013-11-03 22:03:00,36.5,27.0,30.36,West,279,0.0,1.0,69,0.00,,,0.00,weatherlink.com 1.10,2013-11-04 03:03:00,
2013-11-03 22:18:00,37.6,27.0,30.37,West,275,0.0,3.0,66,0.00,,,0.00,weatherlink.com 1.10,2013-11-04 03:18:00,
2013-11-03 22:33:00,37.9,27.0,30.38,WNW,289,0.0,3.0,65,0.00,,,0.00,weatherlink.com 1.10,2013-11-04 03:33:00,
2013-11-03 22:48:00,37.8,27.0,30.39,WNW,286,0.0,3.0,65,0.00,,,0.00,weatherlink.com 1.10,2013-11-04 03:48:00,
2013-11-03 23:03:00,37.4,27.0,30.39,WNW,303,0.0,6.0,66,0.00,,,0.00,weatherlink.com 1.10,2013-11-04 04:03:00,
2013-11-03 23:18:00,37.1,27.0,30.40,NNE,32,0.0,4.0,66,0.00,,,0.00,weatherlink.com 1.10,2013-11-04 04:18:00,
2013-11-03 23:33:00,36.9,26.0,30.40,WNW,290,1.0,4.0,65,0.00,,,0.00,weatherlink.com 1.10,2013-11-04 04:33:00,
2013-11-03 23:48:00,36.6,26.0,30.40,North,11,0.0,8.0,66,0.00,,,0.00,weatherlink.com 1.10,2013-11-04 04:48:00,